Safi, Morocco
Current Conditions -  °F | °C
As of 4:00 PM on Tuesday 21 Oct 2014 (Local Time) from GMMX Reporting Station
Clear Clear  
Wind Chill: 97°   Ceiling: Unl
Heat Index: 97°   Visibility: 6mi
Dew Point: 34°   Wind: 2mph
Humidity: 11%   Direction: NA
Pressure: 30.12"   Gusts: NA
Location:  32.32°N, 9.24°W
Report Text: GMMX 211500Z VRB02KT CAVOK 36/01 Q1020 NOSIG
Loading
Personal Weather Stations






























Interactive Weather Map
Tropical Storm Tracking
New forecast layout! Learn more

10-Day Weather Forecast

Advertisements
Track Severe Weather on mobile